createdAt,value
2023-04-03T00:01:08.724Z,2.30
2023-04-03T00:02:29.367Z,2.40
2023-04-03T00:03:49.605Z,2.50
2023-04-03T00:05:10.549Z,1.92
2023-04-03T00:06:31.053Z,2.15
2023-04-03T00:07:51.729Z,2.20
2023-04-03T00:09:14.006Z,2.05
2023-04-03T00:10:35.077Z,2.40
2023-04-03T00:11:55.911Z,2.35
2023-04-03T00:13:17.698Z,2.20
2023-04-03T00:14:38.525Z,2.42
2023-04-03T00:15:59.331Z,1.77
2023-04-03T00:17:19.996Z,2.25
2023-04-03T00:18:40.956Z,2.00
2023-04-03T00:21:22.453Z,2.53
2023-04-03T00:22:42.939Z,2.75
2023-04-03T00:24:03.792Z,2.92
2023-04-03T00:25:25.571Z,2.00
2023-04-03T00:26:46.311Z,1.98
2023-04-03T00:28:07.429Z,2.28
2023-04-03T00:29:27.919Z,2.95
2023-04-03T00:30:49.971Z,2.40
2023-04-03T00:32:10.390Z,2.20
2023-04-03T00:33:30.982Z,2.30
2023-04-03T00:34:51.625Z,2.45
2023-04-03T00:36:13.778Z,2.63
2023-04-03T00:37:34.742Z,2.65
2023-04-03T00:38:55.373Z,2.42
2023-04-03T00:40:16.563Z,2.90
2023-04-03T00:41:38.238Z,2.35
2023-04-03T00:43:00.186Z,2.25
2023-04-03T00:44:22.723Z,2.50
2023-04-03T00:45:45.346Z,2.58
2023-04-03T00:47:09.559Z,2.25
2023-04-03T00:48:32.984Z,2.30
2023-04-03T00:49:54.771Z,2.30
2023-04-03T00:51:17.915Z,2.20
2023-04-03T00:52:39.154Z,2.35
2023-04-03T00:54:01.342Z,2.50
2023-04-03T00:55:22.084Z,2.60
2023-04-03T00:56:44.589Z,2.45
2023-04-03T00:58:05.933Z,2.17
2023-04-03T00:59:29.918Z,2.40
2023-04-03T01:00:55.162Z,2.15
2023-04-03T01:02:15.969Z,2.00
2023-04-03T01:03:36.926Z,2.08
2023-04-03T01:04:57.530Z,1.70
2023-04-03T01:06:21.331Z,2.40
2023-04-03T01:07:42.211Z,2.10
2023-04-03T01:09:04.254Z,2.45
2023-04-03T01:10:25.005Z,2.65
2023-04-03T01:11:46.819Z,2.17
2023-04-03T01:13:20.606Z,2.00
2023-04-03T01:15:50.613Z,2.03
2023-04-03T01:17:30.644Z,2.60
2023-04-03T01:18:51.058Z,2.53
2023-04-03T01:20:53.344Z,2.70
2023-04-03T01:22:19.118Z,2.22
2023-04-03T01:23:40.702Z,2.17
2023-04-03T01:25:01.618Z,2.33
2023-04-03T01:26:22.546Z,2.30
2023-04-03T01:27:44.514Z,1.77
2023-04-03T01:29:05.437Z,2.30
2023-04-03T01:30:31.445Z,2.35
2023-04-03T01:31:54.692Z,2.55
2023-04-03T01:33:15.552Z,2.60
2023-04-03T01:34:36.162Z,2.42
2023-04-03T01:35:56.975Z,2.05
2023-04-03T01:37:17.307Z,2.50
2023-04-03T01:38:37.598Z,2.55
2023-04-03T01:39:58.251Z,2.10
2023-04-03T01:41:19.034Z,2.53
2023-04-03T01:42:39.608Z,2.10
2023-04-03T01:44:00.140Z,2.20
2023-04-03T01:45:20.853Z,2.35
2023-04-03T01:46:41.569Z,1.90
2023-04-03T01:48:04.427Z,2.10
2023-04-03T01:49:24.928Z,2.40
2023-04-03T01:50:45.778Z,2.45
2023-04-03T01:52:06.477Z,2.63
2023-04-03T01:53:27.469Z,2.25
2023-04-03T01:54:48.135Z,2.45
2023-04-03T01:56:09.281Z,2.38
2023-04-03T01:57:29.661Z,2.30
2023-04-03T01:58:50.150Z,2.30
2023-04-03T02:00:11.661Z,2.33
2023-04-03T02:01:32.316Z,2.28
2023-04-03T02:02:52.903Z,2.50
2023-04-03T02:04:15.049Z,2.88
2023-04-03T02:05:36.128Z,2.65
2023-04-03T02:06:56.426Z,2.03
2023-04-03T02:08:17.159Z,2.50
2023-04-03T02:09:37.830Z,2.42
2023-04-03T02:10:58.734Z,2.30
2023-04-03T02:12:19.282Z,2.50
2023-04-03T02:13:41.549Z,3.15
2023-04-03T02:15:02.044Z,2.83
2023-04-03T02:16:22.866Z,2.80
2023-04-03T02:17:43.600Z,2.35
2023-04-03T02:19:04.528Z,2.65
2023-04-03T02:20:26.882Z,2.50
2023-04-03T02:21:47.431Z,2.88
2023-04-03T02:23:08.251Z,2.40
2023-04-03T02:25:39.162Z,1.98
2023-04-03T02:26:59.623Z,2.65
2023-04-03T02:28:20.245Z,2.73
2023-04-03T02:29:40.989Z,2.63
2023-04-03T02:31:01.609Z,2.47
2023-04-03T02:32:22.282Z,2.78
2023-04-03T02:33:43.171Z,2.88
2023-04-03T02:35:04.480Z,2.92
2023-04-03T02:36:26.762Z,2.38
2023-04-03T02:37:47.434Z,2.47
2023-04-03T02:39:08.135Z,2.70
2023-04-03T02:40:28.817Z,2.30
2023-04-03T02:41:49.620Z,2.67
2023-04-03T02:43:10.332Z,2.47
2023-04-03T02:44:30.712Z,2.33
2023-04-03T02:45:51.255Z,2.90
2023-04-03T02:47:11.927Z,2.40
2023-04-03T02:48:32.890Z,2.83
2023-04-03T02:49:53.577Z,2.40
2023-04-03T02:51:14.446Z,2.72
2023-04-03T02:52:36.335Z,2.67
2023-04-03T02:53:56.725Z,2.65
2023-04-03T02:55:16.491Z,3.28
2023-04-03T02:56:37.425Z,2.45
2023-04-03T02:57:57.953Z,3.10
2023-04-03T02:59:18.872Z,2.78
2023-04-03T03:00:39.693Z,2.92
2023-04-03T03:02:00.638Z,2.60
2023-04-03T03:03:21.395Z,2.80
2023-04-03T03:04:42.812Z,2.35
2023-04-03T03:06:04.525Z,3.05
2023-04-03T03:07:25.241Z,3.95
2023-04-03T03:08:47.240Z,3.00
2023-04-03T03:10:08.531Z,3.13
2023-04-03T03:11:29.112Z,3.15
2023-04-03T03:12:50.166Z,2.83
2023-04-03T03:14:10.946Z,2.83
2023-04-03T03:15:31.794Z,2.38
2023-04-03T03:16:52.599Z,2.97
2023-04-03T03:18:13.222Z,3.33
2023-04-03T03:19:33.722Z,2.63
2023-04-03T03:20:55.248Z,3.28
2023-04-03T03:22:15.523Z,2.92
2023-04-03T03:23:36.197Z,3.17
2023-04-03T03:24:58.587Z,2.55
2023-04-03T03:26:19.295Z,2.60
2023-04-03T03:27:39.943Z,3.10
2023-04-03T03:29:00.698Z,3.10
2023-04-03T03:30:21.151Z,3.47
2023-04-03T03:31:42.173Z,3.20
2023-04-03T03:33:02.959Z,3.07
2023-04-03T03:34:23.709Z,2.80
2023-04-03T03:35:44.631Z,3.38
2023-04-03T03:37:05.238Z,2.97
2023-04-03T03:38:26.300Z,3.13
2023-04-03T03:39:46.783Z,2.97
2023-04-03T03:41:09.047Z,3.42
2023-04-03T03:42:29.403Z,3.38
2023-04-03T03:43:50.220Z,2.85
2023-04-03T03:45:22.593Z,3.20
2023-04-03T03:46:43.001Z,2.90
2023-04-03T03:48:03.876Z,3.28
2023-04-03T03:49:24.477Z,2.97
2023-04-03T03:50:45.301Z,3.13
2023-04-03T03:52:06.015Z,3.72
2023-04-03T03:53:26.694Z,3.17
2023-04-03T03:55:59.691Z,2.67
2023-04-03T03:57:21.491Z,2.90
2023-04-03T03:58:42.175Z,3.17
2023-04-03T04:00:02.884Z,3.28
2023-04-03T04:01:23.479Z,2.83
2023-04-03T04:02:44.270Z,3.40
2023-04-03T04:04:04.955Z,2.83
2023-04-03T04:05:21.363Z,3.20
2023-04-03T04:06:42.138Z,3.15
2023-04-03T04:08:02.687Z,2.90
2023-04-03T04:09:23.296Z,3.60
2023-04-03T04:10:44.068Z,3.22
2023-04-03T04:12:05.159Z,3.38
2023-04-03T04:13:27.088Z,3.28
2023-04-03T04:14:43.362Z,3.20
2023-04-03T04:16:04.625Z,3.45
2023-04-03T04:17:25.384Z,3.30
2023-04-03T04:18:46.134Z,3.22
2023-04-03T04:20:07.622Z,3.40
2023-04-03T04:21:28.344Z,3.10
2023-04-03T04:22:49.068Z,3.03
2023-04-03T04:24:09.986Z,3.00
2023-04-03T04:25:30.440Z,3.10
2023-04-03T04:26:50.949Z,2.95
2023-04-03T04:28:11.679Z,3.20
2023-04-03T04:29:33.884Z,3.33
2023-04-03T04:30:54.370Z,2.85
2023-04-03T04:32:15.231Z,3.65
2023-04-03T04:33:41.514Z,3.10
2023-04-03T04:35:02.273Z,2.95
2023-04-03T04:36:23.052Z,3.15
2023-04-03T04:37:43.610Z,3.73
2023-04-03T04:39:04.411Z,3.03
2023-04-03T04:40:25.408Z,3.85
2023-04-03T04:41:45.765Z,3.42
2023-04-03T04:43:06.531Z,2.97
2023-04-03T04:44:27.483Z,3.58
2023-04-03T04:45:49.741Z,3.65
2023-04-03T04:47:10.456Z,3.33
2023-04-03T04:48:32.731Z,3.45
2023-04-03T04:49:53.290Z,3.28
2023-04-03T04:51:13.853Z,3.37
2023-04-03T04:52:34.523Z,3.67
2023-04-03T04:53:56.165Z,3.07
2023-04-03T04:56:14.743Z,3.75
2023-04-03T04:57:35.717Z,3.28
2023-04-03T04:58:56.414Z,3.35
2023-04-03T05:00:17.686Z,3.25
2023-04-03T05:01:40.268Z,3.30
2023-04-03T05:03:02.665Z,3.35
2023-04-03T05:04:23.416Z,4.28
2023-04-03T05:05:44.159Z,3.65
2023-04-03T05:07:07.869Z,3.60
2023-04-03T05:08:28.512Z,4.30
2023-04-03T05:09:49.323Z,3.50
2023-04-03T05:11:10.287Z,3.75
2023-04-03T05:16:59.647Z,3.47
2023-04-03T05:18:24.500Z,3.80
2023-04-03T05:19:45.880Z,3.85
2023-04-03T05:21:09.611Z,3.97
2023-04-03T05:22:34.584Z,3.80
2023-04-03T05:23:57.934Z,3.55
2023-04-03T05:25:21.932Z,3.88
2023-04-03T05:26:43.000Z,3.60
2023-04-03T05:28:05.116Z,3.75
2023-04-03T05:29:25.785Z,4.40
2023-04-03T05:30:46.215Z,3.95
2023-04-03T05:32:06.760Z,4.20
2023-04-03T05:33:30.875Z,4.47
2023-04-03T05:34:51.873Z,3.80
2023-04-03T05:37:33.480Z,4.05
2023-04-03T05:38:54.457Z,4.32
2023-04-03T05:40:16.319Z,4.53
2023-04-03T05:41:38.193Z,4.47
2023-04-03T05:42:59.065Z,4.07
2023-04-03T05:44:19.831Z,4.53
2023-04-03T05:45:40.564Z,4.65
2023-04-03T05:47:01.268Z,3.75
2023-04-03T05:48:21.812Z,4.28
2023-04-03T05:49:44.232Z,3.60
2023-04-03T05:51:05.504Z,3.85
2023-04-03T05:52:28.559Z,3.80
2023-04-03T05:53:49.538Z,3.60
2023-04-03T05:55:10.164Z,3.85
2023-04-03T05:56:30.831Z,4.38
2023-04-03T05:57:51.743Z,3.88
2023-04-03T05:59:12.374Z,3.60
2023-04-03T06:00:33.069Z,3.78
2023-04-03T06:01:53.754Z,3.97
2023-04-03T06:03:14.717Z,4.70
2023-04-03T06:04:35.364Z,4.05
2023-04-03T06:05:57.408Z,4.25
2023-04-03T06:07:19.072Z,4.10
2023-04-03T06:08:39.508Z,3.92
2023-04-03T06:10:04.973Z,3.83
2023-04-03T06:11:26.523Z,4.00
2023-04-03T06:12:47.273Z,4.07
2023-04-03T06:14:08.446Z,3.70
2023-04-03T06:15:29.290Z,3.67
2023-04-03T06:16:49.958Z,3.90
2023-04-03T06:18:10.860Z,4.35
2023-04-03T06:19:31.880Z,4.43
2023-04-03T06:20:52.611Z,4.40
2023-04-03T06:22:14.915Z,4.35
2023-04-03T06:23:35.729Z,4.43
2023-04-03T06:24:56.569Z,4.40
2023-04-03T06:26:17.049Z,3.90
2023-04-03T06:27:37.902Z,4.07
2023-04-03T06:28:58.453Z,4.38
2023-04-03T06:30:19.283Z,4.15
2023-04-03T06:31:39.845Z,3.83
2023-04-03T06:33:00.574Z,4.30
2023-04-03T06:34:21.318Z,4.07
2023-04-03T06:35:42.032Z,4.07
2023-04-03T06:37:02.845Z,4.30
2023-04-03T06:38:25.114Z,4.43
2023-04-03T06:39:45.732Z,3.55
2023-04-03T06:41:06.327Z,3.35
2023-04-03T06:42:27.429Z,3.75
2023-04-03T06:43:48.191Z,3.60
2023-04-03T06:45:09.573Z,3.38
2023-04-03T06:46:32.226Z,3.97
2023-04-03T06:47:53.226Z,3.78
2023-04-03T06:49:15.443Z,3.63
2023-04-03T06:50:35.762Z,4.47
2023-04-03T06:51:56.599Z,3.50
2023-04-03T06:53:17.469Z,3.67
2023-04-03T06:54:39.589Z,3.50
2023-04-03T06:56:00.335Z,3.75
2023-04-03T06:57:21.053Z,3.45
2023-04-03T06:58:41.972Z,3.55
2023-04-03T07:00:03.413Z,3.30
2023-04-03T07:01:26.004Z,3.50
2023-04-03T07:02:46.588Z,3.42
2023-04-03T07:04:07.453Z,4.15
2023-04-03T07:05:28.141Z,3.57
2023-04-03T07:06:49.025Z,3.15
2023-04-03T07:08:09.676Z,3.63
2023-04-03T07:09:30.386Z,3.70
2023-04-03T07:10:52.630Z,3.97
2023-04-03T07:12:13.412Z,3.55
2023-04-03T07:13:34.478Z,3.42
2023-04-03T07:14:55.313Z,3.00
2023-04-03T07:16:15.799Z,3.78
2023-04-03T07:17:36.653Z,3.80
2023-04-03T07:18:57.375Z,3.38
2023-04-03T07:20:18.262Z,3.47
2023-04-03T07:21:38.857Z,3.60
2023-04-03T07:23:01.175Z,3.70
2023-04-03T07:24:22.734Z,3.50
2023-04-03T07:25:44.228Z,3.25
2023-04-03T07:27:06.639Z,3.03
2023-04-03T07:28:27.461Z,3.55
2023-04-03T07:29:48.026Z,3.38
2023-04-03T07:31:12.396Z,3.53
2023-04-03T07:32:33.297Z,3.60
2023-04-03T07:33:54.216Z,3.88
2023-04-03T07:35:14.605Z,3.22
2023-04-03T07:36:35.005Z,2.83
2023-04-03T07:37:55.788Z,3.88
2023-04-03T07:39:16.633Z,3.90
2023-04-03T07:40:37.591Z,3.47
2023-04-03T07:41:58.051Z,3.20
2023-04-03T07:43:21.320Z,3.15
2023-04-03T07:44:41.736Z,3.63
2023-04-03T07:46:02.561Z,3.45
2023-04-03T07:47:23.478Z,3.25
2023-04-03T07:48:44.556Z,3.40
2023-04-03T07:50:05.683Z,3.95
2023-04-03T07:51:26.399Z,3.38
2023-04-03T07:52:47.471Z,3.70
2023-04-03T07:54:08.223Z,4.85
2023-04-03T07:55:29.233Z,3.60
2023-04-03T07:56:50.229Z,3.20
2023-04-03T07:58:11.549Z,3.28
2023-04-03T07:59:33.788Z,3.58
2023-04-03T08:00:54.461Z,3.40
2023-04-03T08:02:15.025Z,3.25
2023-04-03T08:03:35.775Z,4.50
2023-04-03T08:04:57.045Z,3.10
2023-04-03T08:06:21.641Z,2.90
2023-04-03T08:07:46.918Z,3.33
2023-04-03T08:09:07.334Z,3.03
2023-04-03T08:10:27.984Z,3.45
2023-04-03T08:11:48.830Z,2.72
2023-04-03T08:13:10.232Z,3.00
2023-04-03T08:14:33.450Z,3.28
2023-04-03T08:15:54.171Z,3.50
2023-04-03T08:17:15.081Z,3.00
2023-04-03T08:18:35.740Z,2.92
2023-04-03T08:19:56.559Z,3.45
2023-04-03T08:21:17.242Z,3.20
2023-04-03T08:22:38.216Z,2.90
2023-04-03T08:23:59.020Z,3.00
2023-04-03T08:25:19.633Z,3.43
2023-04-03T08:26:40.311Z,3.03
2023-04-03T08:28:01.679Z,2.95
2023-04-03T08:29:22.094Z,3.75
2023-04-03T08:30:44.368Z,3.28
2023-04-03T08:32:05.291Z,3.67
2023-04-03T08:33:26.003Z,3.00
2023-04-03T08:34:46.824Z,3.00
2023-04-03T08:36:09.459Z,3.20
2023-04-03T08:37:30.328Z,3.53
2023-04-03T08:38:52.097Z,3.00
2023-04-03T08:40:16.066Z,2.85
2023-04-03T08:41:38.072Z,3.75
2023-04-03T08:43:09.175Z,3.17
2023-04-03T08:44:39.694Z,3.43
2023-04-03T08:46:04.443Z,2.95
2023-04-03T08:47:38.496Z,2.47
2023-04-03T08:48:59.597Z,2.75
2023-04-03T08:50:21.983Z,3.33
2023-04-03T08:51:47.130Z,3.15
2023-04-03T08:53:13.268Z,3.05
2023-04-03T08:54:35.532Z,2.90
2023-04-03T08:55:56.696Z,3.03
2023-04-03T08:58:42.739Z,3.00
2023-04-03T09:00:08.136Z,3.45
2023-04-03T09:01:35.520Z,2.50
2023-04-03T09:02:57.151Z,3.10
2023-04-03T09:04:18.737Z,2.33
2023-04-03T09:05:43.246Z,2.50
2023-04-03T09:07:07.060Z,2.45
2023-04-03T09:08:28.917Z,2.88
2023-04-03T09:09:49.673Z,2.70
2023-04-03T09:11:15.812Z,2.80
2023-04-03T09:12:39.454Z,1.95
2023-04-03T09:14:03.645Z,2.45
2023-04-03T09:15:37.649Z,2.05
2023-04-03T09:17:03.197Z,2.25
2023-04-03T09:18:28.406Z,1.70
2023-04-03T09:19:55.152Z,2.05
2023-04-03T09:21:19.723Z,1.80
2023-04-03T09:22:49.785Z,1.98
2023-04-03T09:24:14.444Z,1.70
2023-04-03T09:25:38.221Z,2.10
2023-04-03T09:27:02.749Z,2.10
2023-04-03T09:28:23.331Z,2.42
2023-04-03T09:29:45.413Z,2.35
2023-04-03T09:31:18.772Z,1.77
2023-04-03T09:32:41.122Z,1.50
2023-04-03T09:34:04.643Z,1.60
2023-04-03T09:35:32.864Z,1.65
2023-04-03T09:37:05.913Z,2.00
2023-04-03T09:38:26.813Z,1.88
2023-04-03T09:39:51.733Z,1.85
2023-04-03T09:41:17.328Z,1.67
2023-04-03T09:42:44.107Z,1.92
2023-04-03T09:44:21.579Z,1.85
2023-04-03T09:45:42.263Z,1.50
2023-04-03T09:47:19.917Z,1.80
2023-04-03T09:48:55.023Z,1.35
2023-04-03T09:50:23.058Z,2.22
2023-04-03T09:51:43.533Z,1.67
2023-04-03T09:53:08.645Z,1.95
2023-04-03T09:54:37.505Z,1.55
2023-04-03T09:55:58.894Z,2.00
2023-04-03T09:57:19.798Z,2.15
2023-04-03T10:00:22.562Z,1.50
2023-04-03T10:01:58.449Z,1.60
2023-04-03T10:03:25.971Z,1.70
2023-04-03T10:04:50.747Z,1.92
2023-04-03T10:06:23.540Z,1.30
2023-04-03T10:07:48.687Z,1.33
2023-04-03T10:09:19.747Z,1.08
2023-04-03T10:10:40.912Z,1.55
2023-04-03T10:12:03.885Z,2.42
2023-04-03T10:13:24.637Z,1.70
2023-04-03T10:14:56.008Z,1.35
2023-04-03T10:16:19.020Z,1.40
2023-04-03T10:17:51.251Z,1.60
2023-04-03T10:19:35.225Z,1.80
2023-04-03T10:21:00.929Z,1.52
2023-04-03T10:22:26.145Z,1.40
2023-04-03T10:23:49.826Z,1.50
2023-04-03T10:25:18.005Z,1.80
2023-04-03T10:26:46.446Z,1.25
2023-04-03T10:28:11.342Z,1.50
2023-04-03T10:29:41.985Z,1.30
2023-04-03T10:31:07.117Z,1.80
2023-04-03T10:32:43.717Z,1.33
2023-04-03T10:34:07.055Z,1.95
2023-04-03T10:35:43.429Z,1.48
2023-04-03T10:37:12.755Z,1.75
2023-04-03T10:38:40.889Z,1.40
2023-04-03T10:40:03.928Z,1.70
2023-04-03T10:41:29.763Z,1.40
2023-04-03T10:42:54.116Z,1.40
2023-04-03T10:44:20.602Z,1.30
2023-04-03T10:45:54.913Z,1.48
2023-04-03T10:47:17.812Z,1.10
2023-04-03T10:48:48.076Z,1.00
2023-04-03T10:50:24.302Z,1.25
2023-04-03T10:51:47.111Z,1.70
2023-04-03T10:53:16.786Z,1.13
2023-04-03T10:54:39.990Z,1.30
2023-04-03T10:56:06.094Z,1.73
2023-04-03T10:57:26.830Z,1.30
2023-04-03T10:58:50.962Z,1.50
2023-04-03T11:00:19.151Z,1.40
2023-04-03T11:01:42.679Z,1.20
2023-04-03T11:03:06.884Z,1.15
2023-04-03T11:04:30.993Z,1.45
2023-04-03T11:05:54.390Z,1.05
2023-04-03T11:07:19.323Z,1.25
2023-04-03T11:08:44.658Z,1.20
2023-04-03T11:10:11.279Z,1.20
2023-04-03T11:11:34.762Z,0.90
2023-04-03T11:12:59.481Z,1.38
2023-04-03T11:14:26.562Z,1.25
2023-04-03T11:15:47.211Z,1.20
2023-04-03T11:17:15.524Z,1.00
2023-04-03T11:18:40.961Z,1.30
2023-04-03T11:20:07.145Z,1.23
2023-04-03T11:21:30.359Z,1.30
2023-04-03T11:22:53.580Z,1.50
2023-04-03T11:24:21.786Z,1.33
2023-04-03T11:25:45.703Z,1.40
2023-04-03T11:27:06.887Z,1.13
2023-04-03T11:28:27.317Z,1.38
2023-04-03T11:29:48.486Z,1.02
2023-04-03T11:31:24.100Z,0.80
2023-04-03T11:33:10.810Z,1.25
2023-04-03T11:34:35.313Z,1.33
2023-04-03T11:35:59.458Z,1.00
2023-04-03T11:37:28.701Z,0.88
2023-04-03T11:38:51.114Z,1.30
2023-04-03T11:40:22.612Z,1.30
2023-04-03T11:41:43.403Z,1.40
2023-04-03T11:43:07.935Z,1.10
2023-04-03T11:44:35.609Z,0.85
2023-04-03T11:45:59.158Z,0.90
2023-04-03T11:47:47.991Z,0.80
2023-04-03T11:49:48.897Z,0.90
2023-04-03T11:51:51.489Z,1.60
2023-04-03T11:53:32.959Z,1.10
2023-04-03T11:54:54.251Z,0.60
2023-04-03T11:56:32.518Z,0.75
2023-04-03T11:58:12.333Z,1.10
2023-04-03T11:59:38.247Z,0.70
2023-04-03T12:01:07.268Z,0.75
2023-04-03T12:02:51.180Z,1.02
2023-04-03T12:04:16.572Z,0.60
2023-04-03T12:05:37.808Z,0.88
2023-04-03T12:07:09.484Z,0.90
2023-04-03T12:09:58.743Z,0.90
2023-04-03T12:11:26.349Z,1.20
2023-04-03T12:13:02.218Z,0.90
2023-04-03T12:14:24.115Z,0.82
2023-04-03T12:15:54.255Z,1.02
2023-04-03T12:17:22.263Z,0.63
2023-04-03T12:18:44.180Z,0.88
2023-04-03T12:20:51.472Z,0.65
2023-04-03T12:22:14.944Z,0.82
2023-04-03T12:23:37.432Z,1.00
2023-04-03T12:24:57.909Z,0.88
2023-04-03T12:26:23.935Z,1.23
2023-04-03T12:27:45.073Z,1.00
2023-04-03T12:29:15.948Z,0.70
2023-04-03T12:30:36.618Z,1.02
2023-04-03T12:32:07.650Z,0.98
2023-04-03T12:33:38.030Z,0.70
2023-04-03T12:35:07.369Z,0.93
2023-04-03T12:36:35.003Z,0.65
2023-04-03T12:38:29.181Z,0.75
2023-04-03T12:39:55.590Z,0.90
2023-04-03T12:41:22.946Z,1.00
2023-04-03T12:42:57.752Z,0.95
2023-04-03T12:44:43.912Z,1.10
2023-04-03T12:46:08.707Z,1.30
2023-04-03T12:47:32.633Z,1.35
2023-04-03T12:48:54.424Z,1.30
2023-04-03T12:50:20.768Z,1.10
2023-04-03T12:51:43.916Z,1.20
2023-04-03T12:53:07.419Z,1.35
2023-04-03T12:54:33.115Z,1.10
2023-04-03T12:55:55.285Z,1.20
2023-04-03T12:57:20.048Z,1.42
2023-04-03T12:58:40.909Z,1.65
2023-04-03T13:00:20.836Z,1.27
2023-04-03T13:01:41.694Z,1.02
2023-04-03T13:03:03.634Z,1.30
2023-04-03T13:04:24.689Z,1.52
2023-04-03T13:05:45.815Z,1.13
2023-04-03T13:07:06.333Z,1.17
2023-04-03T13:08:26.655Z,1.20
2023-04-03T13:09:56.523Z,1.15
2023-04-03T13:11:17.152Z,1.35
2023-04-03T13:12:47.623Z,0.90
2023-04-03T13:14:17.648Z,1.52
2023-04-03T13:15:44.967Z,1.55
2023-04-03T13:17:11.560Z,1.10
2023-04-03T13:18:34.911Z,1.38
2023-04-03T13:19:55.866Z,1.38
2023-04-03T13:21:19.026Z,1.30
2023-04-03T13:22:41.608Z,1.38
2023-04-03T13:24:14.743Z,1.20
2023-04-03T13:25:38.866Z,1.42
2023-04-03T13:26:59.556Z,1.48
2023-04-03T13:28:21.835Z,1.77
2023-04-03T13:29:42.483Z,1.58
2023-04-03T13:31:08.779Z,1.77
2023-04-03T13:32:31.295Z,1.75
2023-04-03T13:33:56.457Z,1.58
2023-04-03T13:35:32.768Z,1.52
2023-04-03T13:36:58.091Z,1.25
2023-04-03T13:38:25.220Z,2.10
2023-04-03T13:39:46.965Z,1.42
2023-04-03T13:41:27.804Z,2.65
2023-04-03T13:43:00.317Z,1.58
2023-04-03T13:44:30.956Z,1.60
2023-04-03T13:46:14.527Z,1.70
2023-04-03T13:47:41.676Z,1.60
2023-04-03T13:49:19.684Z,1.50
2023-04-03T13:50:56.639Z,1.73
2023-04-03T13:52:24.438Z,1.40
2023-04-03T13:53:46.512Z,1.30
2023-04-03T13:55:24.791Z,1.48
2023-04-03T13:56:47.157Z,1.70
2023-04-03T13:58:23.472Z,2.00
2023-04-03T13:59:44.550Z,1.48
2023-04-03T14:01:15.630Z,1.58
2023-04-03T14:02:36.138Z,1.80
2023-04-03T14:03:59.227Z,1.60
2023-04-03T14:05:19.850Z,1.55
2023-04-03T14:06:40.739Z,1.80
2023-04-03T14:08:01.942Z,1.80
2023-04-03T14:09:24.046Z,1.40
2023-04-03T14:10:44.888Z,1.52
2023-04-03T14:12:09.845Z,1.40
2023-04-03T14:13:34.202Z,1.60
2023-04-03T14:14:54.728Z,1.48
2023-04-03T14:16:16.767Z,1.52
2023-04-03T14:17:37.456Z,1.60
2023-04-03T14:18:59.622Z,1.60
2023-04-03T14:20:23.306Z,1.50
2023-04-03T14:21:44.133Z,1.80
2023-04-03T14:23:04.921Z,1.60
2023-04-03T14:24:25.787Z,1.50
2023-04-03T14:25:46.409Z,1.73
2023-04-03T14:27:14.551Z,1.80
2023-04-03T14:28:35.406Z,1.67
2023-04-03T14:29:58.019Z,1.30
2023-04-03T14:31:19.764Z,1.40
2023-04-03T14:32:40.451Z,1.70
2023-04-03T14:34:02.780Z,1.63
2023-04-03T14:35:24.332Z,1.30
2023-04-03T14:36:45.649Z,1.88
2023-04-03T14:38:06.985Z,1.55
2023-04-03T14:39:27.818Z,1.70
2023-04-03T14:40:48.780Z,1.95
2023-04-03T14:42:14.001Z,1.35
2023-04-03T14:43:35.087Z,1.70
2023-04-03T14:44:56.120Z,2.08
2023-04-03T14:46:19.694Z,1.52
2023-04-03T14:47:43.865Z,1.73
2023-04-03T14:49:13.168Z,1.52
2023-04-03T14:50:33.691Z,1.92
2023-04-03T14:51:54.519Z,1.40
2023-04-03T14:53:16.947Z,1.52
2023-04-03T14:54:37.764Z,1.65
2023-04-03T14:55:58.326Z,1.60
2023-04-03T14:57:19.785Z,1.83
2023-04-03T14:58:40.547Z,2.13
2023-04-03T15:00:01.252Z,1.63
2023-04-03T15:01:21.855Z,1.38
2023-04-03T15:02:42.709Z,1.55
2023-04-03T15:04:12.257Z,1.77
2023-04-03T15:05:32.685Z,1.70
2023-04-03T15:06:53.757Z,1.70
2023-04-03T15:08:20.480Z,1.50
2023-04-03T15:09:41.252Z,1.65
2023-04-03T15:11:01.913Z,1.60
2023-04-03T15:12:22.618Z,1.58
2023-04-03T15:13:43.474Z,1.52
2023-04-03T15:15:04.866Z,1.77
2023-04-03T15:17:46.789Z,1.48
2023-04-03T15:20:30.136Z,1.80
2023-04-03T15:21:50.731Z,1.77
2023-04-03T15:23:12.872Z,1.45
2023-04-03T15:24:33.405Z,1.52
2023-04-03T15:25:54.687Z,1.80
2023-04-03T15:27:15.770Z,1.83
2023-04-03T15:28:38.381Z,2.40
2023-04-03T15:29:59.910Z,1.90
2023-04-03T15:31:20.501Z,1.88
2023-04-03T15:32:41.295Z,1.63
2023-04-03T15:34:02.528Z,1.85
2023-04-03T15:35:25.044Z,1.85
2023-04-03T15:36:45.493Z,2.10
2023-04-03T15:38:06.306Z,1.80
2023-04-03T15:39:27.036Z,1.55
2023-04-03T15:40:47.982Z,1.80
2023-04-03T15:42:08.523Z,2.03
2023-04-03T15:43:29.001Z,1.90
2023-04-03T15:44:49.703Z,1.77
2023-04-03T15:46:10.901Z,1.60
2023-04-03T15:47:31.558Z,1.67
2023-04-03T15:48:52.293Z,2.00
2023-04-03T15:50:13.127Z,1.63
2023-04-03T15:51:35.121Z,2.07
2023-04-03T15:52:55.729Z,1.70
2023-04-03T15:54:16.808Z,1.92
2023-04-03T15:55:40.064Z,1.77
2023-04-03T15:57:00.955Z,1.40
2023-04-03T15:58:21.977Z,1.45
2023-04-03T15:59:43.065Z,1.60
2023-04-03T16:01:07.652Z,2.08
2023-04-03T16:02:28.780Z,1.92
2023-04-03T16:03:49.833Z,1.80
2023-04-03T16:05:11.110Z,1.83
2023-04-03T16:06:31.939Z,2.83
2023-04-03T16:07:54.392Z,2.00
2023-04-03T16:09:15.475Z,2.15
2023-04-03T16:10:37.164Z,2.00
2023-04-03T16:11:58.111Z,2.13
2023-04-03T16:13:18.828Z,2.05
2023-04-03T16:14:39.524Z,1.65
2023-04-03T16:16:01.064Z,1.92
2023-04-03T16:17:21.660Z,1.80
2023-04-03T16:18:42.767Z,2.03
2023-04-03T16:20:04.174Z,1.92
2023-04-03T16:21:25.330Z,1.75
2023-04-03T16:22:46.239Z,1.73
2023-04-03T16:24:08.579Z,1.75
2023-04-03T16:25:29.140Z,1.55
2023-04-03T16:26:49.873Z,2.08
2023-04-03T16:28:11.108Z,2.13
2023-04-03T16:29:31.756Z,1.80
2023-04-03T16:30:52.869Z,1.98
2023-04-03T16:32:14.439Z,1.98
2023-04-03T16:33:35.582Z,1.85
2023-04-03T16:34:56.220Z,2.10
2023-04-03T16:36:16.921Z,1.70
2023-04-03T16:37:37.509Z,1.90
2023-04-03T16:38:58.407Z,1.85
2023-04-03T16:40:20.622Z,1.95
2023-04-03T16:41:41.347Z,2.60
2023-04-03T16:43:02.379Z,1.95
2023-04-03T16:44:23.005Z,1.77
2023-04-03T16:45:43.702Z,2.20
2023-04-03T16:47:04.765Z,1.95
2023-04-03T16:48:25.657Z,1.80
2023-04-03T16:49:46.365Z,1.90
2023-04-03T16:51:07.032Z,2.22
2023-04-03T16:52:28.257Z,1.90
2023-04-03T16:53:49.035Z,1.95
2023-04-03T16:55:09.803Z,2.08
2023-04-03T16:56:31.774Z,2.00
2023-04-03T16:57:52.344Z,1.80
2023-04-03T16:59:13.179Z,1.75
2023-04-03T17:00:34.188Z,1.80
2023-04-03T17:01:55.561Z,2.10
2023-04-03T17:03:17.187Z,2.17
2023-04-03T17:04:37.778Z,1.80
2023-04-03T17:05:58.743Z,2.50
2023-04-03T17:07:19.851Z,1.90
2023-04-03T17:10:01.644Z,2.10
2023-04-03T17:11:22.461Z,1.60
2023-04-03T17:12:45.210Z,2.00
2023-04-03T17:14:06.106Z,1.92
2023-04-03T17:15:26.955Z,2.03
2023-04-03T17:16:48.201Z,2.15
2023-04-03T17:18:09.144Z,2.15
2023-04-03T17:19:30.099Z,2.42
2023-04-03T17:20:55.957Z,2.20
2023-04-03T17:22:16.715Z,2.03
2023-04-03T17:23:44.891Z,2.15
2023-04-03T17:25:10.246Z,2.42
2023-04-03T17:26:31.441Z,2.10
2023-04-03T17:27:59.735Z,2.22
2023-04-03T17:29:32.271Z,2.60
2023-04-03T17:30:54.409Z,2.13
2023-04-03T17:32:36.750Z,2.22
2023-04-03T17:34:00.125Z,2.00
2023-04-03T17:35:28.926Z,2.40
2023-04-03T17:36:54.609Z,2.33
2023-04-03T17:38:15.779Z,2.65
2023-04-03T17:39:36.896Z,2.50
2023-04-03T17:40:57.798Z,2.85
2023-04-03T17:42:18.547Z,2.07
2023-04-03T17:43:40.784Z,2.38
2023-04-03T17:45:01.689Z,2.45
2023-04-03T17:46:23.086Z,2.20
2023-04-03T17:47:43.655Z,2.47
2023-04-03T17:49:04.299Z,2.17
2023-04-03T17:50:25.057Z,2.40
2023-04-03T17:51:45.903Z,2.90
2023-04-03T17:53:06.778Z,2.35
2023-04-03T17:54:27.401Z,2.55
2023-04-03T17:55:48.164Z,2.25
2023-04-03T17:57:08.840Z,2.33
2023-04-03T17:58:29.546Z,2.35
2023-04-03T17:59:51.557Z,2.73
2023-04-03T18:01:14.146Z,2.55
2023-04-03T18:02:35.166Z,2.45
2023-04-03T18:03:56.974Z,2.75
2023-04-03T18:05:17.961Z,2.55
2023-04-03T18:06:40.345Z,2.55
2023-04-03T18:08:01.434Z,2.17
2023-04-03T18:09:25.339Z,2.95
2023-04-03T18:10:45.876Z,2.30
2023-04-03T18:12:07.910Z,2.85
2023-04-03T18:13:28.552Z,2.15
2023-04-03T18:14:51.267Z,2.30
2023-04-03T18:16:13.191Z,2.40
2023-04-03T18:17:33.975Z,2.50
2023-04-03T18:19:06.926Z,2.40
2023-04-03T18:20:35.485Z,2.45
2023-04-03T18:21:57.861Z,2.75
2023-04-03T18:23:18.698Z,2.10
2023-04-03T18:24:39.454Z,2.42
2023-04-03T18:26:00.991Z,2.25
2023-04-03T18:28:47.227Z,2.20
2023-04-03T18:30:13.392Z,2.33
2023-04-03T18:31:35.678Z,2.75
2023-04-03T18:32:56.756Z,2.40
2023-04-03T18:34:18.205Z,3.05
2023-04-03T18:37:00.044Z,2.65
2023-04-03T18:38:20.908Z,3.17
2023-04-03T18:39:41.571Z,2.72
2023-04-03T18:41:03.456Z,2.95
2023-04-03T18:42:25.799Z,2.65
2023-04-03T18:43:46.508Z,2.60
2023-04-03T18:45:09.939Z,3.38
2023-04-03T18:46:31.608Z,3.30
2023-04-03T18:47:52.479Z,2.60
2023-04-03T18:49:13.802Z,2.72
2023-04-03T18:50:34.797Z,2.85